Time;durP1;ratioP1;P1;durP2;ratioP2;P2;SDS_P1;SDS_P2;PMS_P1;PMS_P2;Temp;Humidity;BMP_temperature;BMP_pressure;BME280_temperature;BME280_humidity;BME280_pressure;Samples;Min_cycle;Max_cycle;Signal;HPM_P1;HPM_P2
2023/12/19 00:00:05;;;;;;;;;;;128.40;2252.80;;;;;;5071713;28;19909;-78
2023/12/19 00:02:30;;;;;;;;;;;128.20;2252.80;;;;;;5078964;28;19916;-78
2023/12/19 00:04:56;;;;;;;;;;;128.20;2252.80;;;;;;5071655;28;19915;-78
2023/12/19 00:07:21;;;;;;;;;;;128.30;2252.80;;;;;;5068106;28;20250;-78
2023/12/19 00:09:48;;;;;;;;;;;128.30;2252.80;;;;;;5063720;28;19916;-78
2023/12/19 00:12:13;;;;;;;;;;;103.30;2227.20;;;;;;5061717;28;19908;-78
2023/12/19 00:14:39;;;;;;;;;;;103.30;2227.20;;;;;;5064992;28;20417;-77
2023/12/19 00:17:04;;;;;;;;;;;103.30;2227.20;;;;;;5078870;28;19987;-78
2023/12/19 00:19:30;;;;;;;;;;;103.30;2227.20;;;;;;5075711;28;20265;-78
2023/12/19 00:21:56;;;;;;;;;;;128.10;2252.80;;;;;;5081021;28;19916;-78
2023/12/19 00:24:22;;;;;;;;;;;128.10;2252.80;;;;;;5071916;28;19917;-77
2023/12/19 00:26:47;;;;;;;;;;;128.20;2252.80;;;;;;5078954;28;19920;-78
2023/12/19 00:29:13;;;;;;;;;;;128.10;2252.80;;;;;;5076939;28;19955;-78
2023/12/19 00:31:38;;;;;;;;;;;128.00;2252.80;;;;;;5073646;28;19904;-78
2023/12/19 00:34:04;;;;;;;;;;;128.00;2252.80;;;;;;5081666;28;20369;-78
2023/12/19 00:36:30;;;;;;;;;;;103.30;2227.20;;;;;;5075708;28;19913;-78
2023/12/19 00:38:55;;;;;;;;;;;128.00;2252.80;;;;;;5074563;28;19948;-78
2023/12/19 00:41:21;;;;;;;;;;;103.30;2227.20;;;;;;5083187;28;19932;-78
2023/12/19 00:43:47;;;;;;;;;;;128.00;2252.80;;;;;;5063313;28;20361;-78
2023/12/19 00:46:12;;;;;;;;;;;128.20;2252.80;;;;;;5078603;28;19915;-78
2023/12/19 00:48:38;;;;;;;;;;;128.20;2252.80;;;;;;5080010;28;19990;-78
2023/12/19 00:51:10;;;;;;;;;;;128.30;2252.80;;;;;;5076450;28;19958;-77
2023/12/19 00:53:36;;;;;;;;;;;128.30;2252.80;;;;;;5081089;28;19908;-77
2023/12/19 00:56:01;;;;;;;;;;;128.20;2252.80;;;;;;5070335;28;19923;-77
2023/12/19 00:58:27;;;;;;;;;;;128.10;2252.80;;;;;;5071260;28;20365;-77
2023/12/19 01:00:53;;;;;;;;;;;128.10;2252.80;;;;;;5095302;28;19909;-78
2023/12/19 01:03:18;;;;;;;;;;;128.00;2252.80;;;;;;5082991;28;19999;-77
2023/12/19 01:05:44;;;;;;;;;;;128.20;2252.80;;;;;;5078546;28;19913;-77
2023/12/19 01:08:10;;;;;;;;;;;128.20;2252.80;;;;;;5067308;28;19912;-78
2023/12/19 01:10:35;;;;;;;;;;;128.30;2252.80;;;;;;5078343;28;19956;-78
2023/12/19 01:13:01;;;;;;;;;;;128.40;2252.80;;;;;;5077812;28;19919;-78
2023/12/19 01:15:26;;;;;;;;;;;128.30;2252.80;;;;;;5074134;28;19912;-78
2023/12/19 01:17:52;;;;;;;;;;;128.10;2252.80;;;;;;5092042;28;20280;-78
2023/12/19 01:20:18;;;;;;;;;;;103.20;2227.20;;;;;;5076619;28;19912;-78
2023/12/19 01:22:43;;;;;;;;;;;103.00;2227.20;;;;;;5073692;28;20315;-78
2023/12/19 01:25:09;;;;;;;;;;;103.00;2227.20;;;;;;5072171;28;19908;-78
2023/12/19 01:27:34;;;;;;;;;;;103.10;2227.20;;;;;;5087700;28;19957;-78
2023/12/19 01:30:00;;;;;;;;;;;103.10;2227.20;;;;;;5094122;28;19954;-77
2023/12/19 01:32:25;;;;;;;;;;;103.00;2227.20;;;;;;5073681;28;20288;-78
2023/12/19 01:34:52;;;;;;;;;;;102.90;2227.20;;;;;;5067329;28;19927;-78
2023/12/19 01:37:18;;;;;;;;;;;103.00;2227.20;;;;;;5077454;28;19912;-77
2023/12/19 01:39:44;;;;;;;;;;;103.10;2227.20;;;;;;5098636;28;19930;-78
2023/12/19 01:42:09;;;;;;;;;;;103.20;2227.20;;;;;;5091991;28;19904;-76
2023/12/19 01:44:35;;;;;;;;;;;103.20;2227.20;;;;;;5098002;28;19930;-78
2023/12/19 01:47:01;;;;;;;;;;;103.20;2227.20;;;;;;5063047;28;19912;-78
2023/12/19 01:49:27;;;;;;;;;;;103.20;2227.20;;;;;;5083529;28;19929;-78
2023/12/19 01:51:52;;;;;;;;;;;103.20;2227.20;;;;;;5074585;28;19908;-78
2023/12/19 01:54:19;;;;;;;;;;;103.30;2227.20;;;;;;5077763;28;19994;-78
2023/12/19 01:56:45;;;;;;;;;;;103.10;2227.20;;;;;;5062470;28;19909;-78
2023/12/19 01:59:10;;;;;;;;;;;103.00;2227.20;;;;;;5099087;28;19959;-79
2023/12/19 02:01:36;;;;;;;;;;;103.10;2227.20;;;;;;5072382;28;19909;-78
2023/12/19 02:04:02;;;;;;;;;;;102.90;2227.20;;;;;;5061364;28;20354;-78
2023/12/19 02:06:28;;;;;;;;;;;103.00;2227.20;;;;;;5056564;28;19913;-77
2023/12/19 02:08:53;;;;;;;;;;;103.10;2227.20;;;;;;5070007;28;19930;-78
2023/12/19 02:11:19;;;;;;;;;;;103.20;2227.20;;;;;;5068191;28;19908;-78
2023/12/19 02:13:45;;;;;;;;;;;103.30;2227.20;;;;;;5058268;28;19961;-78
2023/12/19 02:16:11;;;;;;;;;;;103.30;2227.20;;;;;;5075492;28;19908;-78
2023/12/19 02:18:36;;;;;;;;;;;103.30;2227.20;;;;;;5074067;28;20277;-78
2023/12/19 02:21:04;;;;;;;;;;;128.00;2252.80;;;;;;5080404;28;19904;-77
2023/12/19 02:23:29;;;;;;;;;;;103.10;2227.20;;;;;;5075158;28;19905;-77
2023/12/19 02:25:55;;;;;;;;;;;102.90;2227.20;;;;;;5079927;28;19915;-78
2023/12/19 02:28:21;;;;;;;;;;;102.80;2227.20;;;;;;5069741;28;19924;-77
2023/12/19 02:30:46;;;;;;;;;;;102.80;2227.20;;;;;;5062385;28;20289;-78
2023/12/19 02:33:12;;;;;;;;;;;102.60;2227.20;;;;;;5071625;28;19913;-78
2023/12/19 02:35:38;;;;;;;;;;;102.50;2227.20;;;;;;5089110;28;20311;-78
2023/12/19 02:38:03;;;;;;;;;;;102.50;2227.20;;;;;;5091796;28;19912;-78
2023/12/19 02:40:29;;;;;;;;;;;102.50;2227.20;;;;;;5085791;28;19962;-78
2023/12/19 02:42:54;;;;;;;;;;;102.40;2227.20;;;;;;5072313;28;20269;-78
2023/12/19 02:45:20;;;;;;;;;;;102.40;2227.20;;;;;;5073785;28;19943;-78
2023/12/19 02:47:46;;;;;;;;;;;77.70;2227.20;;;;;;5072956;28;19915;-78
2023/12/19 02:50:11;;;;;;;;;;;77.70;2227.20;;;;;;5072549;28;20336;-78
2023/12/19 02:52:37;;;;;;;;;;;77.70;2227.20;;;;;;5072182;28;19904;-78
2023/12/19 02:55:04;;;;;;;;;;;77.60;2227.20;;;;;;5073661;28;19904;-78
2023/12/19 02:57:29;;;;;;;;;;;77.50;2227.20;;;;;;5072066;28;19995;-78
2023/12/19 02:59:55;;;;;;;;;;;77.50;2227.20;;;;;;5073710;28;20016;-78
2023/12/19 03:02:21;;;;;;;;;;;77.50;2227.20;;;;;;5076528;28;19904;-78
2023/12/19 03:04:46;;;;;;;;;;;77.50;2227.20;;;;;;5077365;28;20418;-78
2023/12/19 03:10:10;;;;;;;;;;;102.40;2227.20;;;;;;5104663;23;19929;-79
2023/12/19 03:12:36;;;;;;;;;;;102.40;2227.20;;;;;;5001591;28;19914;-78
2023/12/19 03:15:02;;;;;;;;;;;77.70;2227.20;;;;;;5008309;28;19913;-79
2023/12/19 03:17:28;;;;;;;;;;;77.70;2227.20;;;;;;5015369;28;19912;-79
2023/12/19 03:19:53;;;;;;;;;;;77.70;2227.20;;;;;;5022721;28;19913;-78
2023/12/19 03:22:19;;;;;;;;;;;102.40;2227.20;;;;;;5002776;28;20307;-78
2023/12/19 03:24:45;;;;;;;;;;;102.40;2227.20;;;;;;5001919;28;19906;-78
2023/12/19 03:27:11;;;;;;;;;;;102.50;2227.20;;;;;;5001916;28;19909;-79
2023/12/19 03:29:36;;;;;;;;;;;102.50;2227.20;;;;;;5015228;28;20290;-79
2023/12/19 03:32:02;;;;;;;;;;;102.40;2227.20;;;;;;5014682;28;19912;-78
2023/12/19 03:34:28;;;;;;;;;;;102.40;2227.20;;;;;;5024118;28;19997;-78
2023/12/19 03:36:54;;;;;;;;;;;102.40;2227.20;;;;;;5014052;28;19949;-78
2023/12/19 03:39:19;;;;;;;;;;;102.40;2227.20;;;;;;5014554;28;20329;-79
2023/12/19 03:41:45;;;;;;;;;;;77.60;2227.20;;;;;;5014405;28;19909;-79
2023/12/19 03:44:11;;;;;;;;;;;77.70;2227.20;;;;;;5014718;28;19906;-78
2023/12/19 03:46:36;;;;;;;;;;;102.40;2227.20;;;;;;5014630;28;19906;-79
2023/12/19 03:49:03;;;;;;;;;;;102.50;2227.20;;;;;;5018801;28;19913;-79
2023/12/19 03:51:29;;;;;;;;;;;102.50;2227.20;;;;;;5024773;28;19948;-77
2023/12/19 03:53:55;;;;;;;;;;;102.40;2227.20;;;;;;5014235;28;19948;-78
2023/12/19 03:56:20;;;;;;;;;;;77.60;2227.20;;;;;;5014603;28;19905;-79
2023/12/19 03:58:46;;;;;;;;;;;77.50;2227.20;;;;;;5014070;28;20015;-79
2023/12/19 04:01:12;;;;;;;;;;;77.50;2227.20;;;;;;5014659;28;20267;-78
2023/12/19 04:03:38;;;;;;;;;;;77.40;2227.20;;;;;;5014234;28;20279;-79
2023/12/19 04:06:04;;;;;;;;;;;77.40;2227.20;;;;;;5014402;28;19928;-79
2023/12/19 04:08:29;;;;;;;;;;;77.60;2227.20;;;;;;5016573;28;19917;-79
2023/12/19 04:10:55;;;;;;;;;;;77.50;2227.20;;;;;;5025674;28;19974;-79
2023/12/19 04:13:20;;;;;;;;;;;77.40;2227.20;;;;;;5011956;28;19933;-79
2023/12/19 04:15:46;;;;;;;;;;;77.30;2227.20;;;;;;5006046;28;19906;-78
2023/12/19 04:18:14;;;;;;;;;;;77.30;2227.20;;;;;;5017077;28;20376;-79
2023/12/19 04:20:39;;;;;;;;;;;77.30;2227.20;;;;;;5015935;28;19905;-79
2023/12/19 04:23:05;;;;;;;;;;;77.50;2227.20;;;;;;5046720;28;19956;-79
2023/12/19 04:25:30;;;;;;;;;;;77.30;2227.20;;;;;;5038439;28;19901;-78
2023/12/19 04:27:56;;;;;;;;;;;77.30;2227.20;;;;;;5020322;28;19996;-78
2023/12/19 04:30:21;;;;;;;;;;;77.20;2227.20;;;;;;5003743;28;19905;-79
2023/12/19 04:32:47;;;;;;;;;;;77.10;2227.20;;;;;;5013895;28;20282;-78
2023/12/19 04:35:13;;;;;;;;;;;77.20;2227.20;;;;;;5014045;28;19905;-79
2023/12/19 04:37:39;;;;;;;;;;;77.10;2227.20;;;;;;5014349;28;20310;-78
2023/12/19 04:40:05;;;;;;;;;;;77.00;2227.20;;;;;;5013036;28;19914;-78
2023/12/19 04:42:30;;;;;;;;;;;77.10;2227.20;;;;;;5013804;28;19933;-78
2023/12/19 04:44:56;;;;;;;;;;;77.10;2227.20;;;;;;5014681;28;19905;-79
2023/12/19 04:47:22;;;;;;;;;;;77.20;2227.20;;;;;;5012776;28;20386;-78
2023/12/19 04:49:48;;;;;;;;;;;77.10;2227.20;;;;;;5015002;28;20306;-80
2023/12/19 04:52:13;;;;;;;;;;;77.20;2227.20;;;;;;5014640;28;19951;-78
2023/12/19 04:54:39;;;;;;;;;;;77.30;2227.20;;;;;;5014864;28;19905;-79
2023/12/19 04:57:05;;;;;;;;;;;77.10;2227.20;;;;;;5014706;28;19913;-79
2023/12/19 04:59:32;;;;;;;;;;;77.00;2227.20;;;;;;5014731;28;19924;-79
2023/12/19 05:01:57;;;;;;;;;;;77.10;2227.20;;;;;;5013024;28;19905;-79
2023/12/19 05:04:23;;;;;;;;;;;77.20;2227.20;;;;;;5013129;28;19932;-79
2023/12/19 05:06:48;;;;;;;;;;;77.30;2227.20;;;;;;5013496;28;20005;-78
2023/12/19 05:09:14;;;;;;;;;;;77.10;2227.20;;;;;;5003021;28;20385;-78
2023/12/19 05:11:44;;;;;;;;;;;77.00;2227.20;;;;;;4993422;28;19921;-79
2023/12/19 05:14:09;;;;;;;;;;;77.00;2227.20;;;;;;4994949;28;19964;-79
2023/12/19 05:16:35;;;;;;;;;;;77.20;2227.20;;;;;;4995949;28;20267;-79
2023/12/19 05:19:00;;;;;;;;;;;77.20;2227.20;;;;;;5013132;28;20274;-79
2023/12/19 05:21:26;;;;;;;;;;;77.40;2227.20;;;;;;5006358;28;19989;-79
2023/12/19 05:23:52;;;;;;;;;;;77.70;2227.20;;;;;;5002166;28;19905;-78
2023/12/19 05:26:18;;;;;;;;;;;77.70;2227.20;;;;;;5012677;28;19913;-79
2023/12/19 05:28:43;;;;;;;;;;;77.70;2227.20;;;;;;5012909;28;19914;-78
2023/12/19 05:31:10;;;;;;;;;;;77.50;2227.20;;;;;;5012426;28;19948;-79
2023/12/19 05:33:35;;;;;;;;;;;77.40;2227.20;;;;;;5014035;28;19905;-79
2023/12/19 05:36:01;;;;;;;;;;;77.30;2227.20;;;;;;5013755;28;19913;-79
2023/12/19 05:38:27;;;;;;;;;;;77.20;2227.20;;;;;;5005534;28;19905;-80
2023/12/19 05:40:57;;;;;;;;;;;77.30;2227.20;;;;;;4995867;28;20288;-78
2023/12/19 05:43:22;;;;;;;;;;;77.40;2227.20;;;;;;5012141;28;20043;-79
2023/12/19 05:45:48;;;;;;;;;;;77.40;2227.20;;;;;;5011438;28;19948;-79
2023/12/19 05:48:14;;;;;;;;;;;77.30;2227.20;;;;;;5012000;28;19909;-79
2023/12/19 05:50:39;;;;;;;;;;;77.20;2227.20;;;;;;5012419;28;19948;-78
2023/12/19 05:53:05;;;;;;;;;;;77.30;2227.20;;;;;;5012836;28;19909;-79
2023/12/19 05:55:31;;;;;;;;;;;77.20;2227.20;;;;;;5012140;28;19909;-79
2023/12/19 05:57:57;;;;;;;;;;;77.20;2227.20;;;;;;5012566;28;19944;-79
2023/12/19 06:00:22;;;;;;;;;;;77.20;2227.20;;;;;;5011956;28;19953;-79
2023/12/19 06:02:50;;;;;;;;;;;77.30;2227.20;;;;;;5012571;28;20445;-78
2023/12/19 06:05:16;;;;;;;;;;;77.40;2227.20;;;;;;5013347;28;19913;-78
2023/12/19 06:07:42;;;;;;;;;;;77.40;2227.20;;;;;;5013325;28;20366;-78
2023/12/19 06:10:08;;;;;;;;;;;77.40;2227.20;;;;;;5011910;28;19925;-79
2023/12/19 06:12:34;;;;;;;;;;;77.30;2227.20;;;;;;5003933;28;19910;-78
2023/12/19 06:15:00;;;;;;;;;;;77.30;2227.20;;;;;;5002009;28;20298;-79
2023/12/19 06:17:25;;;;;;;;;;;77.50;2227.20;;;;;;5004582;28;19924;-78
2023/12/19 06:19:51;;;;;;;;;;;77.50;2227.20;;;;;;5016616;28;19906;-77
2023/12/19 06:22:17;;;;;;;;;;;77.50;2227.20;;;;;;5012465;28;20003;-79
2023/12/19 06:24:42;;;;;;;;;;;77.40;2227.20;;;;;;5005531;28;20258;-79
2023/12/19 06:27:08;;;;;;;;;;;77.60;2227.20;;;;;;4998716;28;19910;-79
2023/12/19 06:29:34;;;;;;;;;;;77.60;2227.20;;;;;;4995729;28;20004;-78
2023/12/19 06:32:00;;;;;;;;;;;77.60;2227.20;;;;;;5002502;28;19949;-79
2023/12/19 06:34:27;;;;;;;;;;;77.50;2227.20;;;;;;5012063;28;19995;-78
2023/12/19 06:36:53;;;;;;;;;;;77.50;2227.20;;;;;;5007358;28;20322;-78
2023/12/19 06:39:19;;;;;;;;;;;77.50;2227.20;;;;;;5003123;28;19909;-77
2023/12/19 06:41:45;;;;;;;;;;;77.70;2227.20;;;;;;5004679;28;19936;-81
2023/12/19 06:44:11;;;;;;;;;;;77.70;2227.20;;;;;;5006651;28;19920;-80
2023/12/19 06:46:36;;;;;;;;;;;102.40;2227.20;;;;;;5008010;28;19905;-80
2023/12/19 06:49:02;;;;;;;;;;;77.70;2227.20;;;;;;5011371;28;20374;-80
2023/12/19 06:51:27;;;;;;;;;;;77.70;2227.20;;;;;;5006245;28;19905;-81
2023/12/19 06:53:57;;;;;;;;;;;77.70;2227.20;;;;;;5016808;28;19909;-81
2023/12/19 06:56:27;;;;;;;;;;;77.70;2227.20;;;;;;5014119;28;19909;-81
2023/12/19 06:58:52;;;;;;;;;;;77.60;2227.20;;;;;;5014071;28;19996;-80
2023/12/19 07:01:18;;;;;;;;;;;77.60;2227.20;;;;;;5001206;28;20407;-79
2023/12/19 07:03:44;;;;;;;;;;;77.50;2227.20;;;;;;5011784;28;19905;-80
2023/12/19 07:06:13;;;;;;;;;;;77.50;2227.20;;;;;;5008469;28;19945;-78
2023/12/19 07:08:39;;;;;;;;;;;77.60;2227.20;;;;;;5013067;28;19917;-76
2023/12/19 07:11:05;;;;;;;;;;;77.60;2227.20;;;;;;5004341;28;20070;-78
2023/12/19 07:13:32;;;;;;;;;;;77.60;2227.20;;;;;;5011181;28;19921;-78
2023/12/19 07:15:58;;;;;;;;;;;77.60;2227.20;;;;;;5001340;28;20008;-79
2023/12/19 07:18:23;;;;;;;;;;;77.60;2227.20;;;;;;5002648;28;19914;-78
2023/12/19 07:20:49;;;;;;;;;;;77.70;2227.20;;;;;;5003802;28;19925;-79
2023/12/19 07:23:15;;;;;;;;;;;77.70;2227.20;;;;;;5006271;28;19917;-78
2023/12/19 07:25:41;;;;;;;;;;;102.40;2227.20;;;;;;5003405;28;19917;-79
2023/12/19 07:28:07;;;;;;;;;;;102.40;2227.20;;;;;;5007417;28;20282;-78
2023/12/19 07:30:32;;;;;;;;;;;102.50;2227.20;;;;;;5003254;28;19910;-77
2023/12/19 07:33:01;;;;;;;;;;;102.60;2227.20;;;;;;4999280;28;19916;-78
2023/12/19 07:35:26;;;;;;;;;;;102.70;2227.20;;;;;;5007948;28;20369;-78
2023/12/19 07:37:52;;;;;;;;;;;102.60;2227.20;;;;;;5010961;28;19910;-78
2023/12/19 07:40:18;;;;;;;;;;;102.60;2227.20;;;;;;5020703;28;20048;-79
2023/12/19 07:42:44;;;;;;;;;;;102.70;2227.20;;;;;;5017323;28;19992;-80
2023/12/19 07:45:10;;;;;;;;;;;102.70;2227.20;;;;;;5001829;28;19913;-79
2023/12/19 07:47:36;;;;;;;;;;;102.90;2227.20;;;;;;5002060;28;19961;-79
2023/12/19 07:50:02;;;;;;;;;;;102.90;2227.20;;;;;;5007227;28;19954;-80
2023/12/19 07:52:28;;;;;;;;;;;102.90;2227.20;;;;;;5013333;28;20343;-79
2023/12/19 07:54:54;;;;;;;;;;;102.90;2227.20;;;;;;5014572;28;19916;-79
2023/12/19 07:57:20;;;;;;;;;;;103.00;2227.20;;;;;;5007315;28;20008;-80
2023/12/19 07:59:46;;;;;;;;;;;103.10;2227.20;;;;;;5003048;28;19909;-79
2023/12/19 08:02:12;;;;;;;;;;;103.00;2227.20;;;;;;5012697;28;19910;-79
2023/12/19 08:04:37;;;;;;;;;;;102.90;2227.20;;;;;;5003860;28;19910;-79
2023/12/19 08:07:04;;;;;;;;;;;103.00;2227.20;;;;;;5010096;28;20318;-80
2023/12/19 08:09:30;;;;;;;;;;;103.10;2227.20;;;;;;5018673;28;19970;-80
2023/12/19 08:11:58;;;;;;;;;;;103.30;2227.20;;;;;;5001175;28;20385;-79
2023/12/19 08:14:24;;;;;;;;;;;103.20;2227.20;;;;;;5005075;28;19932;-79
2023/12/19 08:16:50;;;;;;;;;;;103.20;2227.20;;;;;;5001246;28;19909;-80
2023/12/19 08:19:18;;;;;;;;;;;103.30;2227.20;;;;;;5006752;28;19910;-79
2023/12/19 08:21:48;;;;;;;;;;;103.30;2227.20;;;;;;5010869;28;19956;-79
2023/12/19 08:24:13;;;;;;;;;;;103.30;2227.20;;;;;;4998994;28;19964;-80
2023/12/19 08:26:39;;;;;;;;;;;128.10;2252.80;;;;;;5001956;28;19909;-79
2023/12/19 08:29:05;;;;;;;;;;;128.40;2252.80;;;;;;5004675;28;19918;-80
2023/12/19 08:31:30;;;;;;;;;;;128.50;2252.80;;;;;;5005174;28;19913;-78
2023/12/19 08:33:56;;;;;;;;;;;128.50;2252.80;;;;;;5012842;28;19914;-81
2023/12/19 08:36:22;;;;;;;;;;;128.50;2252.80;;;;;;5001040;28;19910;-80
2023/12/19 08:38:47;;;;;;;;;;;128.50;2252.80;;;;;;5009990;28;19917;-78
2023/12/19 08:41:13;;;;;;;;;;;128.80;2252.80;;;;;;5017303;28;20264;-77
2023/12/19 08:43:38;;;;;;;;;;;128.90;2252.80;;;;;;5007246;28;19917;-78
2023/12/19 08:46:04;;;;;;;;;;;153.60;2252.80;;;;;;5010856;28;20266;-78
2023/12/19 08:48:30;;;;;;;;;;;128.90;2252.80;;;;;;5012114;28;20004;-79
2023/12/19 08:50:56;;;;;;;;;;;128.90;2252.80;;;;;;5016479;28;20402;-79
2023/12/19 08:53:21;;;;;;;;;;;153.60;2252.80;;;;;;5019339;28;19910;-78
2023/12/19 08:55:48;;;;;;;;;;;153.60;2252.80;;;;;;5014235;28;20000;-78
2023/12/19 08:58:14;;;;;;;;;;;153.70;2252.80;;;;;;5005284;28;20275;-78
2023/12/19 09:00:40;;;;;;;;;;;153.60;2252.80;;;;;;5010124;28;19909;-78
2023/12/19 09:03:05;;;;;;;;;;;153.90;2252.80;;;;;;5010454;28;20020;-80
2023/12/19 09:05:31;;;;;;;;;;;154.10;2252.80;;;;;;5007756;28;19915;-83
2023/12/19 09:07:56;;;;;;;;;;;154.20;2252.80;;;;;;5002124;28;20402;-81
2023/12/19 09:10:22;;;;;;;;;;;154.30;2252.80;;;;;;5004261;28;19921;-80
2023/12/19 09:12:48;;;;;;;;;;;154.40;2252.80;;;;;;5010675;28;19916;-80
2023/12/19 09:15:13;;;;;;;;;;;154.50;2252.80;;;;;;4997959;28;19916;-81
2023/12/19 09:17:39;;;;;;;;;;;179.20;2252.80;;;;;;5012527;28;19916;-80
2023/12/19 09:20:05;;;;;;;;;;;179.30;2252.80;;;;;;5010512;28;20351;-79
2023/12/19 09:22:31;;;;;;;;;;;179.20;2252.80;;;;;;5006502;28;19905;-78
2023/12/19 09:24:56;;;;;;;;;;;179.40;2252.80;;;;;;5007941;28;19906;-79
2023/12/19 09:27:22;;;;;;;;;;;179.50;2252.80;;;;;;5010097;28;20359;-80
2023/12/19 09:29:48;;;;;;;;;;;179.70;2252.80;;;;;;5012894;28;20055;-80
2023/12/19 09:32:15;;;;;;;;;;;179.90;2252.80;;;;;;5005983;28;19910;-79
2023/12/19 09:34:40;;;;;;;;;;;180.10;2252.80;;;;;;5021153;28;19916;-78
2023/12/19 09:37:06;;;;;;;;;;;204.90;2252.80;;;;;;5006487;28;19909;-77
2023/12/19 09:39:32;;;;;;;;;;;205.00;2252.80;;;;;;5002600;28;19914;-76
2023/12/19 09:41:58;;;;;;;;;;;205.20;2252.80;;;;;;5002637;28;19910;-77
2023/12/19 09:44:25;;;;;;;;;;;205.40;2252.80;;;;;;5003384;28;20283;-77
2023/12/19 09:46:51;;;;;;;;;;;205.50;2252.80;;;;;;5003270;28;19936;-83
2023/12/19 09:49:20;;;;;;;;;;;230.60;2252.80;;;;;;5004821;28;19921;-84
2023/12/19 09:51:46;;;;;;;;;;;230.60;2252.80;;;;;;5008983;28;19910;-79
2023/12/19 09:54:13;;;;;;;;;;;230.60;2252.80;;;;;;4999915;28;19932;-77
2023/12/19 09:56:38;;;;;;;;;;;230.90;2252.80;;;;;;5006639;28;20008;-80
2023/12/19 09:59:04;;;;;;;;;;;231.20;2252.80;;;;;;5008191;28;19909;-80
2023/12/19 10:01:30;;;;;;;;;;;231.30;2252.80;;;;;;5002203;28;20453;-78
2023/12/19 10:03:55;;;;;;;;;;;256.00;2252.80;;;;;;5013000;28;20007;-79
2023/12/19 10:06:24;;;;;;;;;;;256.10;2252.80;;;;;;5017942;28;19910;-80
2023/12/19 10:08:52;;;;;;;;;;;256.50;2252.80;;;;;;5005461;28;20008;-81
2023/12/19 10:11:18;;;;;;;;;;;256.60;2252.80;;;;;;5002871;28;19922;-80
2023/12/19 10:13:44;;;;;;;;;;;;;;;;;;4995201;28;19905;-78
2023/12/19 10:16:13;;;;;;;;;;;256.90;2252.80;;;;;;5001313;28;20364;-79
2023/12/19 10:18:39;;;;;;;;;;;256.90;2252.80;;;;;;5009417;28;19956;-79
2023/12/19 10:21:13;;;;;;;;;;;281.80;2278.40;;;;;;4996813;28;19916;-80
2023/12/19 10:23:39;;;;;;;;;;;281.90;2278.40;;;;;;5005987;28;19953;-77
2023/12/19 10:26:06;;;;;;;;;;;281.70;2278.40;;;;;;5003901;28;19913;-79
2023/12/19 10:28:32;;;;;;;;;;;282.00;2278.40;;;;;;5003310;28;19918;-78
2023/12/19 10:31:07;;;;;;;;;;;282.30;2278.40;;;;;;5004445;28;19912;-77
2023/12/19 10:33:39;;;;;;;;;;;307.20;2304.00;;;;;;4995376;28;19905;-78
2023/12/19 10:36:05;;;;;;;;;;;307.30;2304.00;;;;;;5009245;28;20395;-79
2023/12/19 10:38:44;;;;;;;;;;;307.60;2304.00;;;;;;5000661;28;19953;-78
2023/12/19 10:41:09;;;;;;;;;;;307.70;2304.00;;;;;;5004716;28;19956;-79
2023/12/19 10:43:38;;;;;;;;;;;307.80;2304.00;;;;;;5002729;28;19940;-79
2023/12/19 10:46:04;;;;;;;;;;;307.90;2304.00;;;;;;5009597;28;19906;-78
2023/12/19 10:48:29;;;;;;;;;;;333.10;2329.60;;;;;;5009486;28;19924;-79
2023/12/19 10:50:55;;;;;;;;;;;332.90;2329.60;;;;;;5008438;28;19952;-79
2023/12/19 10:53:21;;;;;;;;;;;332.90;2329.60;;;;;;5007352;28;19959;-79
2023/12/19 10:55:50;;;;;;;;;;;333.10;2329.60;;;;;;5004994;28;20355;-79
2023/12/19 10:58:18;;;;;;;;;;;308.10;2304.00;;;;;;5006343;28;19910;-79
2023/12/19 11:00:46;;;;;;;;;;;307.80;2304.00;;;;;;5012971;28;19909;-79
2023/12/19 11:03:20;;;;;;;;;;;308.00;2304.00;;;;;;5022721;28;19913;-78
2023/12/19 11:05:50;;;;;;;;;;;307.80;2304.00;;;;;;5001834;28;20299;-78
2023/12/19 11:08:17;;;;;;;;;;;308.10;2304.00;;;;;;4998701;28;20421;-79
2023/12/19 11:10:57;;;;;;;;;;;307.80;2304.00;;;;;;5002779;28;19922;-79
2023/12/19 11:13:25;;;;;;;;;;;308.00;2304.00;;;;;;5003643;28;19909;-79
2023/12/19 11:16:01;;;;;;;;;;;308.00;2304.00;;;;;;5004303;28;19921;-79
2023/12/19 11:18:34;;;;;;;;;;;308.10;2304.00;;;;;;5003084;28;19909;-78
2023/12/19 11:21:07;;;;;;;;;;;308.10;2304.00;;;;;;4999638;28;20360;-78
2023/12/19 11:24:08;;;;;;;;;;;308.10;2304.00;;;;;;5007334;28;19916;-79
2023/12/19 11:26:37;;;;;;;;;;;308.10;2304.00;;;;;;4969742;28;19910;-79
2023/12/19 11:29:02;;;;;;;;;;;332.80;2329.60;;;;;;4953061;28;20013;-78
2023/12/19 11:31:32;;;;;;;;;;;332.90;2329.60;;;;;;4965007;28;20432;-77
2023/12/19 11:33:59;;;;;;;;;;;332.90;2329.60;;;;;;4950065;28;19912;-79
2023/12/19 11:36:24;;;;;;;;;;;307.90;2304.00;;;;;;4952588;28;20348;-76
2023/12/19 11:38:50;;;;;;;;;;;307.70;2304.00;;;;;;4941457;28;19906;-79
2023/12/19 11:41:34;;;;;;;;;;;307.60;2304.00;;;;;;4956632;28;20028;-78
2023/12/19 11:44:00;;;;;;;;;;;307.60;2304.00;;;;;;4966430;28;19917;-79
2023/12/19 11:46:26;;;;;;;;;;;307.30;2304.00;;;;;;4946454;28;19950;-79
2023/12/19 11:48:52;;;;;;;;;;;307.20;2304.00;;;;;;4958581;28;20020;-80
2023/12/19 11:51:36;;;;;;;;;;;307.30;2304.00;;;;;;4952046;28;19917;-79
2023/12/19 11:54:03;;;;;;;;;;;307.30;2304.00;;;;;;4948915;29;20022;-79
2023/12/19 11:56:30;;;;;;;;;;;307.30;2304.00;;;;;;4962468;28;19917;-77
2023/12/19 11:58:55;;;;;;;;;;;282.50;2278.40;;;;;;4963100;28;19910;-78
2023/12/19 12:01:22;;;;;;;;;;;282.50;2278.40;;;;;;4995209;28;20051;-79
2023/12/19 12:03:47;;;;;;;;;;;307.20;2304.00;;;;;;5002140;28;19905;-79
2023/12/19 12:06:17;;;;;;;;;;;307.20;2304.00;;;;;;4998615;28;20282;-79
2023/12/19 12:08:52;;;;;;;;;;;282.40;2278.40;;;;;;5016535;28;19921;-79
2023/12/19 12:11:18;;;;;;;;;;;282.20;2278.40;;;;;;5004193;28;19928;-79
2023/12/19 12:13:58;;;;;;;;;;;282.30;2278.40;;;;;;5020946;28;19980;-79
2023/12/19 12:16:33;;;;;;;;;;;282.30;2278.40;;;;;;5001198;28;19960;-80
2023/12/19 12:19:08;;;;;;;;;;;282.20;2278.40;;;;;;5004608;28;19937;-79
2023/12/19 12:21:33;;;;;;;;;;;282.20;2278.40;;;;;;5005540;28;19910;-78
2023/12/19 12:23:59;;;;;;;;;;;282.20;2278.40;;;;;;5006850;28;20377;-77
2023/12/19 12:26:24;;;;;;;;;;;282.20;2278.40;;;;;;5019710;28;20048;-79
2023/12/19 12:28:50;;;;;;;;;;;282.20;2278.40;;;;;;5007719;28;19918;-79
2023/12/19 12:31:16;;;;;;;;;;;282.10;2278.40;;;;;;5002248;28;19920;-80
2023/12/19 12:33:42;;;;;;;;;;;282.00;2278.40;;;;;;5007689;28;19905;-79
2023/12/19 12:36:08;;;;;;;;;;;282.00;2278.40;;;;;;5002292;28;19957;-79
2023/12/19 12:38:33;;;;;;;;;;;282.00;2278.40;;;;;;5008143;28;20264;-79
2023/12/19 12:41:00;;;;;;;;;;;282.00;2278.40;;;;;;5000659;28;19914;-78
2023/12/19 12:43:39;;;;;;;;;;;281.90;2278.40;;;;;;5008890;28;19959;-78
2023/12/19 12:46:16;;;;;;;;;;;281.80;2278.40;;;;;;5002619;28;19948;-78
2023/12/19 12:48:44;;;;;;;;;;;281.90;2278.40;;;;;;5007998;28;19963;-78
2023/12/19 12:51:10;;;;;;;;;;;282.00;2278.40;;;;;;5003772;28;20283;-77
2023/12/19 12:53:36;;;;;;;;;;;282.10;2278.40;;;;;;5008551;28;19917;-79
2023/12/19 12:56:05;;;;;;;;;;;282.00;2278.40;;;;;;5000703;28;19921;-79
2023/12/19 12:58:32;;;;;;;;;;;282.10;2278.40;;;;;;5002271;28;19909;-79
2023/12/19 13:00:58;;;;;;;;;;;282.10;2278.40;;;;;;5004638;28;19997;-79
2023/12/19 13:03:23;;;;;;;;;;;282.10;2278.40;;;;;;5009418;28;19906;-79
2023/12/19 13:05:49;;;;;;;;;;;282.00;2278.40;;;;;;5011210;28;19916;-79
2023/12/19 13:08:15;;;;;;;;;;;282.00;2278.40;;;;;;5010280;28;20363;-79
2023/12/19 13:10:40;;;;;;;;;;;282.00;2278.40;;;;;;5002373;28;19921;-78
2023/12/19 13:13:08;;;;;;;;;;;282.00;2278.40;;;;;;5006697;28;19910;-79
2023/12/19 13:15:34;;;;;;;;;;;282.00;2278.40;;;;;;5006853;28;19910;-79
2023/12/19 13:18:00;;;;;;;;;;;282.00;2278.40;;;;;;5005434;28;20012;-79
2023/12/19 13:20:25;;;;;;;;;;;282.00;2278.40;;;;;;5002280;28;19913;-79
2023/12/19 13:22:51;;;;;;;;;;;282.00;2278.40;;;;;;4994151;28;19914;-79
2023/12/19 13:25:17;;;;;;;;;;;282.00;2278.40;;;;;;5003739;28;20298;-79
2023/12/19 13:27:43;;;;;;;;;;;282.00;2278.40;;;;;;5009509;28;20274;-79
2023/12/19 13:30:10;;;;;;;;;;;282.00;2278.40;;;;;;5011990;28;19918;-78
2023/12/19 13:32:41;;;;;;;;;;;282.00;2278.40;;;;;;4997874;28;19910;-78
2023/12/19 13:35:08;;;;;;;;;;;281.90;2278.40;;;;;;5004020;28;19909;-78
2023/12/19 13:37:37;;;;;;;;;;;281.80;2278.40;;;;;;5003132;28;19909;-82
2023/12/19 13:40:09;;;;;;;;;;;282.00;2278.40;;;;;;4996169;28;19928;-78
2023/12/19 13:42:35;;;;;;;;;;;282.00;2278.40;;;;;;4999811;28;21159;-78